Time;durP1;ratioP1;P1;durP2;ratioP2;P2;SDS_P1;SDS_P2;PMS_P1;PMS_P2;Temp;Humidity;BMP_temperature;BMP_pressure;BME280_temperature;BME280_humidity;BME280_pressure;Samples;Min_cycle;Max_cycle;Signal;HPM_P1;HPM_P2
2022/05/03 00:02:27;;;;;;;;;13.75;13.75;;;;;19.86;34.74;101272.44;5079036;27;45984;-56
2022/05/03 00:05:21;;;;;;;;;19.00;16.75;;;;;19.88;35.20;101278.47;5077993;27;45384;-58
2022/05/03 00:08:28;;;;;;;;;19.25;16.25;;;;;19.88;34.91;101273.22;5079156;27;45371;-58
2022/05/03 00:11:24;;;;;;;;;17.75;17.00;;;;;19.86;34.97;101272.44;5013408;27;46106;-60
2022/05/03 00:13:54;;;;;;;;;16.00;14.75;;;;;19.86;34.72;101267.16;5078753;28;46030;-60
2022/05/03 00:16:21;;;;;;;;;16.25;16.25;;;;;19.84;35.01;101264.59;5078932;28;45396;-59
2022/05/03 00:18:47;;;;;;;;;19.00;16.75;;;;;19.86;35.00;101264.53;5079082;27;45330;-59
2022/05/03 00:21:12;;;;;;;;;13.75;12.25;;;;;19.86;34.82;101264.53;5078473;27;46260;-59
2022/05/03 00:23:38;;;;;;;;;18.25;17.50;;;;;19.85;34.62;101263.63;5078970;28;45451;-58
2022/05/03 00:26:04;;;;;;;;;18.25;16.75;;;;;19.85;34.58;101263.63;5078677;28;45294;-58
2022/05/03 00:28:30;;;;;;;;;15.50;14.00;;;;;19.84;34.59;101261.97;5078886;27;45496;-58
2022/05/03 00:30:56;;;;;;;;;18.00;17.75;;;;;19.84;34.75;101263.72;5078438;27;46081;-57
2022/05/03 00:33:22;;;;;;;;;22.75;18.50;;;;;19.82;34.89;101261.16;5078514;27;45398;-58
2022/05/03 00:35:49;;;;;;;;;21.50;17.75;;;;;19.83;34.56;101262.88;5078536;27;45271;-59
2022/05/03 00:38:15;;;;;;;;;17.75;17.00;;;;;19.83;34.90;101262.00;5078669;28;45280;-58
2022/05/03 00:40:47;;;;;;;;;15.00;13.25;;;;;19.82;34.85;101255.03;5077262;28;48076;-58
2022/05/03 00:43:23;;;;;;;;;17.25;16.00;;;;;19.82;34.60;101250.66;5078392;27;45320;-47
2022/05/03 00:45:56;;;;;;;;;16.00;16.00;;;;;19.82;34.74;101255.91;5078430;27;45341;-58
2022/05/03 00:48:43;;;;;;;;;17.50;13.75;;;;;19.83;34.64;101251.50;5078611;27;45372;-58
2022/05/03 00:51:15;;;;;;;;;16.50;15.00;;;;;19.84;34.56;101247.94;5078459;28;45427;-58
2022/05/03 00:54:04;;;;;;;;;18.75;16.00;;;;;19.83;34.83;101251.50;5078371;27;45887;-59
2022/05/03 00:56:54;;;;;;;;;16.75;15.75;;;;;19.81;34.52;101242.81;5078131;27;45393;-59
2022/05/03 00:59:41;;;;;;;;;19.00;18.25;;;;;19.81;34.85;101245.44;5078167;28;45367;-58
2022/05/03 01:02:07;;;;;;;;;16.25;14.00;;;;;19.80;34.57;101251.63;5077986;28;45461;-58
2022/05/03 01:05:02;;;;;;;;;19.00;16.75;;;;;19.80;34.52;101251.63;5078102;28;45873;-58
2022/05/03 01:07:34;;;;;;;;;17.50;14.75;;;;;19.79;34.72;101256.03;5077957;27;45322;-58
2022/05/03 01:10:04;;;;;;;;;13.25;10.75;;;;;19.77;34.65;101250.84;5078359;27;45384;-56
2022/05/03 01:13:02;;;;;;;;;15.75;15.00;;;;;19.78;34.53;101255.19;5077880;27;45900;-58
2022/05/03 01:15:33;;;;;;;;;19.50;17.50;;;;;19.77;34.87;101244.72;5077444;27;45972;-57
2022/05/03 01:18:24;;;;;;;;;20.50;16.50;;;;;19.77;34.83;101247.34;5077855;27;45386;-59
2022/05/03 01:21:07;;;;;;;;;15.00;14.25;;;;;19.77;34.59;101247.34;5077995;27;45302;-59
2022/05/03 01:23:48;;;;;;;;;17.00;16.25;;;;;19.74;34.55;101243.09;5077710;27;45494;-56
2022/05/03 01:26:27;;;;;;;;;19.00;18.50;;;;;19.75;35.14;101250.06;5077815;27;45219;-58
2022/05/03 01:29:13;;;;;;;;;19.25;17.25;;;;;19.75;34.54;101247.44;5077665;28;45328;-58
2022/05/03 01:31:39;;;;;;;;;19.50;19.50;;;;;19.74;34.94;101240.47;5077724;28;45374;-58
2022/05/03 01:34:10;;;;;;;;;18.25;17.00;;;;;19.74;34.61;101234.34;5077041;27;45378;-57
2022/05/03 01:37:10;;;;;;;;;17.75;17.25;;;;;19.74;34.70;101236.97;5077462;27;45393;-55
2022/05/03 01:40:04;;;;;;;;;19.50;17.75;;;;;19.74;34.72;101236.97;5046127;27;45515;-58
2022/05/03 01:43:10;;;;;;;;;18.25;16.50;;;;;19.74;34.86;101231.72;5077636;27;45385;-58
2022/05/03 01:46:05;;;;;;;;;14.50;14.50;;;;;19.73;35.08;101225.59;5077217;28;45271;-58
2022/05/03 01:51:56;;;;;;;;;15.75;15.25;;;;;19.72;34.59;101237.06;5077290;28;45170;-58
2022/05/03 01:54:27;;;;;;;;;15.00;13.75;;;;;19.73;34.51;101230.03;5077683;28;45281;-58
2022/05/03 01:57:31;;;;;;;;;15.25;14.75;;;;;19.71;35.02;101230.09;5076960;28;46076;-55
2022/05/03 02:00:07;;;;;;;;;18.00;17.00;;;;;19.71;35.02;101216.09;5077165;27;45953;-58
2022/05/03 02:02:51;;;;;;;;;21.50;17.75;;;;;19.70;34.49;101215.22;5077231;27;45394;-57
2022/05/03 02:05:32;;;;;;;;;14.25;14.25;;;;;19.68;34.86;101217.06;5077676;28;45642;-59
2022/05/03 02:07:58;;;;;;;;;23.00;18.00;;;;;19.69;34.57;101210.03;5076815;27;46426;-58
2022/05/03 02:10:29;;;;;;;;;14.00;12.25;;;;;19.67;34.70;101210.13;5076936;27;45319;-58
2022/05/03 02:13:02;;;;;;;;;18.25;15.25;;;;;19.68;34.86;101219.69;5077173;28;45436;-58
2022/05/03 02:15:43;;;;;;;;;17.75;15.75;;;;;19.68;34.87;101217.06;5076000;28;45424;-56
2022/05/03 02:18:23;;;;;;;;;17.00;15.50;;;;;19.61;34.52;101208.63;5076809;28;45216;-57
2022/05/03 02:21:15;;;;;;;;;16.75;13.25;;;;;19.66;34.37;101221.56;5076829;27;45376;-57
2022/05/03 02:24:03;;;;;;;;;18.00;16.25;;;;;19.67;34.76;101225.03;5075678;28;45239;-58
2022/05/03 02:26:31;;;;;;;;;18.50;15.50;;;;;19.65;34.31;101222.47;5077045;27;45539;-58
2022/05/03 02:29:09;;;;;;;;;17.75;15.75;;;;;19.65;34.77;101222.47;5075914;28;45426;-58
2022/05/03 02:31:52;;;;;;;;;16.25;13.75;;;;;19.65;34.86;101233.00;5076811;27;45761;-58
2022/05/03 02:34:45;;;;;;;;;20.75;17.75;;;;;19.65;34.48;101232.13;5077185;27;45425;-58
2022/05/03 02:37:17;;;;;;;;;16.25;15.25;;;;;19.63;34.50;101225.16;5076951;28;45393;-58
2022/05/03 02:39:59;;;;;;;;;18.50;16.75;;;;;19.63;34.76;101234.84;5076348;27;46161;-58
2022/05/03 02:42:25;;;;;;;;;16.25;14.50;;;;;19.62;34.46;101222.63;5076678;27;45285;-59
2022/05/03 02:44:54;;;;;;;;;18.25;16.00;;;;;19.61;34.79;101229.66;5076599;27;45249;-58
2022/05/03 02:47:42;;;;;;;;;15.25;11.75;;;;;19.61;34.76;101231.41;5076923;27;45377;-58
2022/05/03 02:50:13;;;;;;;;;12.75;12.50;;;;;19.61;34.47;101223.53;5065572;27;46275;-58
2022/05/03 02:53:09;;;;;;;;;13.25;13.25;;;;;19.62;35.01;101225.25;5076527;27;45389;-57
2022/05/03 02:55:50;;;;;;;;;18.25;14.50;;;;;19.63;34.35;101232.22;5076640;27;45386;-58
2022/05/03 02:58:40;;;;;;;;;20.25;15.00;;;;;19.62;34.52;101238.41;5077120;27;45233;-58
2022/05/03 03:02:00;;;;;;;;;15.50;13.25;;;;;19.61;34.60;101232.28;5076235;28;46109;-58
2022/05/03 03:04:58;;;;;;;;;16.75;15.50;;;;;19.62;34.62;101230.50;5074377;27;45978;-59
2022/05/03 03:07:28;;;;;;;;;15.25;15.25;;;;;19.60;34.39;101230.59;5061899;28;45633;-58
2022/05/03 03:10:03;;;;;;;;;13.75;13.50;;;;;19.58;34.38;101219.28;5076638;27;45231;-59
2022/05/03 03:12:43;;;;;;;;;13.50;12.00;;;;;19.60;34.74;101229.72;5076200;27;46526;-59
2022/05/03 03:15:10;;;;;;;;;13.25;11.75;;;;;19.60;34.91;101224.47;5075954;27;45464;-58
2022/05/03 03:17:40;;;;;;;;;13.25;13.25;;;;;19.60;34.79;101224.47;5075886;27;45310;-58
2022/05/03 03:20:09;;;;;;;;;18.00;16.50;;;;;19.60;34.30;101227.09;5076393;27;45259;-56
2022/05/03 03:22:46;;;;;;;;;17.00;14.00;;;;;19.60;34.79;101229.72;5075929;27;46802;-58
2022/05/03 03:25:14;;;;;;;;;15.25;12.75;;;;;19.59;34.51;101222.75;5074697;28;45458;-58
2022/05/03 03:27:43;;;;;;;;;18.00;16.25;;;;;19.57;34.42;101227.22;5076271;27;45208;-58
2022/05/03 03:30:10;;;;;;;;;15.75;14.75;;;;;19.59;34.72;101228.88;5076151;28;45438;-58
2022/05/03 03:32:39;;;;;;;;;16.50;14.00;;;;;19.58;34.65;101218.41;5075750;28;45978;-58
2022/05/03 03:35:04;;;;;;;;;17.25;12.50;;;;;19.59;34.55;101228.00;5075823;27;46002;-58
2022/05/03 03:37:33;;;;;;;;;15.50;15.00;;;;;19.58;34.40;101221.91;5076039;27;45293;-58
2022/05/03 03:39:59;;;;;;;;;14.25;13.00;;;;;19.58;34.67;101227.16;5078392;27;45441;-59
2022/05/03 03:42:29;;;;;;;;;14.50;11.50;;;;;19.57;34.62;101219.31;5079265;28;46049;-59
2022/05/03 03:45:07;;;;;;;;;12.50;12.50;;;;;19.57;34.32;101211.44;5079218;27;45804;-57
2022/05/03 03:47:33;;;;;;;;;13.25;13.25;;;;;19.56;34.42;101209.75;5079335;27;45472;-58
2022/05/03 03:49:59;;;;;;;;;19.50;14.75;;;;;19.58;34.58;101214.03;5079541;27;45337;-58
2022/05/03 03:52:26;;;;;;;;;22.75;16.75;;;;;19.53;34.39;101208.09;5079027;27;46463;-57
2022/05/03 03:54:53;;;;;;;;;16.25;12.00;;;;;19.55;34.27;101216.78;5078304;28;45876;-58
2022/05/03 03:57:23;;;;;;;;;18.25;15.50;;;;;19.56;34.54;101215.84;5079563;27;45461;-58
2022/05/03 03:59:51;;;;;;;;;13.75;12.75;;;;;19.55;34.47;101215.94;5078257;28;45493;-57
2022/05/03 04:02:16;;;;;;;;;13.25;12.75;;;;;19.56;34.22;101221.13;5079019;27;46976;-58
2022/05/03 04:04:44;;;;;;;;;14.50;13.75;;;;;19.56;34.34;101220.28;5078949;27;45377;-55
2022/05/03 04:07:10;;;;;;;;;16.50;15.50;;;;;19.55;34.29;101215.94;5079045;27;45401;-58
2022/05/03 04:09:35;;;;;;;;;15.25;14.25;;;;;19.54;34.42;101222.13;5079163;28;45250;-57
2022/05/03 04:12:02;;;;;;;;;16.75;16.75;;;;;19.55;34.48;101223.81;5078596;27;46290;-58
2022/05/03 04:14:28;;;;;;;;;19.50;13.50;;;;;19.53;34.16;101217.78;5078574;27;45976;-57
2022/05/03 04:16:53;;;;;;;;;18.75;17.00;;;;;19.53;34.34;101217.78;5079173;27;45314;-44
2022/05/03 04:19:20;;;;;;;;;16.75;16.00;;;;;19.47;34.23;101214.50;5079178;28;45366;-57
2022/05/03 04:21:46;;;;;;;;;16.75;13.75;;;;;19.52;34.17;101226.59;5078507;28;46583;-57
2022/05/03 04:24:12;;;;;;;;;14.75;14.25;;;;;19.52;34.09;101221.31;5078700;27;45397;-58
2022/05/03 04:26:37;;;;;;;;;16.50;15.50;;;;;19.53;34.43;101230.91;5078884;28;45212;-54
2022/05/03 04:29:03;;;;;;;;;19.75;16.00;;;;;19.51;33.97;101217.84;5078839;28;45553;-58
2022/05/03 04:31:30;;;;;;;;;17.00;16.50;;;;;19.51;34.54;101227.50;5078488;27;46263;-56
2022/05/03 04:33:57;;;;;;;;;15.50;14.75;;;;;19.51;34.22;101227.50;5078630;27;45851;-58
2022/05/03 04:36:23;;;;;;;;;14.00;13.50;;;;;19.50;34.61;101224.03;5078913;27;45408;-58
2022/05/03 04:38:49;;;;;;;;;14.50;14.00;;;;;19.49;34.06;101229.34;5078809;27;45611;-58
2022/05/03 04:41:14;;;;;;;;;12.00;10.75;;;;;19.49;34.17;101226.72;5078323;27;45387;-56
2022/05/03 04:43:40;;;;;;;;;16.75;14.75;;;;;19.49;34.55;101232.84;5078442;28;45298;-55
2022/05/03 04:46:05;;;;;;;;;14.50;14.50;;;;;19.47;34.22;101225.00;5078448;28;45324;-55
2022/05/03 04:48:31;;;;;;;;;14.25;14.25;;;;;19.44;34.31;101216.41;5078707;27;45354;-51
2022/05/03 04:50:56;;;;;;;;;17.00;13.50;;;;;19.46;34.54;101218.03;5077644;28;46080;-47
2022/05/03 04:53:22;;;;;;;;;12.25;11.00;;;;;19.49;34.55;101226.72;5078653;27;45362;-56
2022/05/03 04:55:49;;;;;;;;;16.25;13.75;;;;;19.50;34.18;101233.69;5078473;27;45219;-58
2022/05/03 04:58:14;;;;;;;;;15.25;14.50;;;;;19.47;34.50;101230.25;5078482;27;45223;-54
2022/05/03 05:00:40;;;;;;;;;17.75;16.00;;;;;19.47;34.35;101229.41;5077978;27;47652;-56
2022/05/03 05:03:05;;;;;;;;;20.50;14.25;;;;;19.49;34.52;101229.34;5078191;28;45320;-58
2022/05/03 05:05:31;;;;;;;;;14.00;13.25;;;;;19.49;34.43;101237.22;5078264;27;45287;-58
2022/05/03 05:08:04;;;;;;;;;15.25;15.25;;;;;19.47;34.24;101235.53;5078420;28;45279;-53
2022/05/03 05:10:32;;;;;;;;;15.75;15.00;;;;;19.46;34.43;101239.06;5078073;27;46159;-57
2022/05/03 05:12:58;;;;;;;;;21.00;16.75;;;;;19.47;33.99;101246.03;5077962;27;45344;-49
2022/05/03 05:15:24;;;;;;;;;18.75;16.50;;;;;19.47;34.64;101246.03;5078596;28;45386;-51
2022/05/03 05:17:50;;;;;;;;;16.75;15.50;;;;;19.46;34.29;101244.31;5078081;27;45539;-53
2022/05/03 05:20:16;;;;;;;;;13.50;13.50;;;;;19.46;34.03;101244.31;5077682;27;46290;-58
2022/05/03 05:22:43;;;;;;;;;16.00;14.25;;;;;19.46;34.60;101249.59;5077707;28;45374;-58
2022/05/03 05:25:09;;;;;;;;;16.25;13.25;;;;;19.46;34.60;101249.59;5077936;27;45197;-54
2022/05/03 05:27:34;;;;;;;;;18.25;14.75;;;;;19.46;34.49;101248.75;5078007;27;45543;-55
2022/05/03 05:30:00;;;;;;;;;13.25;10.50;;;;;19.46;34.26;101249.59;5077488;28;46707;-55
2022/05/03 05:32:25;;;;;;;;;17.00;16.50;;;;;19.46;34.56;101259.25;5078049;28;45377;-58
2022/05/03 05:34:50;;;;;;;;;17.67;16.67;;;;;19.47;34.26;101253.09;5077397;28;45188;-58
2022/05/03 05:37:16;;;;;;;;;18.00;16.33;;;;;19.46;34.66;101260.09;5077818;28;45731;-55
2022/05/03 05:39:41;;;;;;;;;14.25;13.50;;;;;19.46;34.32;101262.72;5077391;28;48308;-54
2022/05/03 05:42:06;;;;;;;;;16.50;13.25;;;;;19.46;34.24;101261.88;5077490;28;45280;-51
2022/05/03 05:44:32;;;;;;;;;17.75;17.25;;;;;19.46;34.18;101261.88;5077701;27;45239;-59
2022/05/03 05:46:57;;;;;;;;;15.25;14.50;;;;;19.46;34.32;101259.25;5078000;28;45558;-58
2022/05/03 05:49:22;;;;;;;;;15.50;13.25;;;;;19.46;34.27;101264.50;5077215;28;45330;-53
2022/05/03 05:51:48;;;;;;;;;17.50;13.25;;;;;19.44;34.48;101259.34;5077330;27;45341;-49
2022/05/03 05:54:16;;;;;;;;;15.75;15.75;;;;;19.45;34.56;101266.31;5077550;27;45363;-57
2022/05/03 05:56:42;;;;;;;;;14.75;14.00;;;;;19.46;34.52;101275.03;5077385;27;45565;-56
2022/05/03 05:59:07;;;;;;;;;13.25;13.25;;;;;19.44;34.26;101267.22;5077186;27;46983;-58
2022/05/03 06:01:40;;;;;;;;;12.00;12.00;;;;;19.45;34.50;101274.19;5076944;27;45517;-58
2022/05/03 06:04:06;;;;;;;;;11.00;8.75;;;;;19.45;34.29;101274.19;5076418;27;45298;-56
2022/05/03 06:06:32;;;;;;;;;13.75;12.50;;;;;19.42;34.48;101266.44;5077338;28;45437;-58
2022/05/03 06:09:02;;;;;;;;;16.25;13.25;;;;;19.44;34.71;101274.25;5077309;27;46236;-55
2022/05/03 06:11:29;;;;;;;;;14.50;13.00;;;;;19.46;34.69;101278.50;5077314;27;45842;-56
2022/05/03 06:13:54;;;;;;;;;20.50;18.00;;;;;19.44;34.58;101283.00;5077062;27;45390;-59
2022/05/03 06:16:20;;;;;;;;;17.75;16.25;;;;;19.43;34.60;101281.28;5077214;27;45478;-58
2022/05/03 06:18:45;;;;;;;;;20.00;15.50;;;;;19.45;34.38;101275.94;5076860;27;45462;-57
2022/05/03 06:21:11;;;;;;;;;10.50;10.00;;;;;19.46;34.60;101280.28;5076780;28;45461;-55
2022/05/03 06:23:36;;;;;;;;;20.75;16.00;;;;;19.44;34.39;101276.88;5076920;28;45377;-58
2022/05/03 06:26:05;;;;;;;;;14.75;13.75;;;;;19.46;34.59;101286.38;5076973;27;45319;-58
2022/05/03 06:28:32;;;;;;;;;15.25;13.25;;;;;19.47;34.44;101289.88;5076432;27;46270;-52
2022/05/03 06:30:57;;;;;;;;;14.00;14.00;;;;;19.44;34.46;101283.00;5076900;28;45310;-57
2022/05/03 06:33:22;;;;;;;;;15.00;14.00;;;;;19.44;34.40;101282.13;5076938;27;45494;-58
2022/05/03 06:35:48;;;;;;;;;19.50;14.00;;;;;19.46;34.83;101285.53;5076953;27;45698;-57
2022/05/03 06:38:13;;;;;;;;;14.00;14.00;;;;;19.45;34.32;101297.84;5076311;28;53168;-57
2022/05/03 06:40:38;;;;;;;;;13.33;12.33;;;;;19.47;34.33;101288.09;5076270;28;50225;-58
2022/05/03 06:43:04;;;;;;;;;23.75;18.00;;;;;19.47;34.77;101293.34;5076651;28;45339;-58
2022/05/03 06:45:29;;;;;;;;;20.25;18.25;;;;;19.47;34.67;101297.78;5077044;27;45305;-57
2022/05/03 06:47:55;;;;;;;;;14.75;14.75;;;;;19.46;34.58;101290.81;5075133;28;48919;-57
2022/05/03 06:50:20;;;;;;;;;18.50;13.75;;;;;19.46;34.40;101296.91;5076283;27;45266;-57
2022/05/03 06:52:56;;;;;;;;;13.25;10.50;;;;;19.47;34.46;101300.41;5076590;28;45579;-57
2022/05/03 06:55:22;;;;;;;;;18.25;13.50;;;;;19.45;34.53;101292.59;5076692;27;45338;-57
2022/05/03 06:57:48;;;;;;;;;12.50;10.75;;;;;19.47;34.76;101298.63;5076036;27;46569;-58
2022/05/03 07:00:14;;;;;;;;;18.25;16.50;;;;;19.46;34.69;101294.28;5075817;28;45803;-58
2022/05/03 07:02:39;;;;;;;;;17.75;15.50;;;;;19.46;34.70;101296.06;5076554;27;45399;-56
2022/05/03 07:05:06;;;;;;;;;18.50;16.25;;;;;19.45;34.43;101292.59;5075441;28;45470;-58
2022/05/03 07:07:31;;;;;;;;;14.50;14.50;;;;;19.46;34.62;101296.91;5076507;27;47122;-59
2022/05/03 07:09:58;;;;;;;;;14.00;11.50;;;;;19.47;34.18;101303.88;5076293;28;45457;-58
2022/05/03 07:12:24;;;;;;;;;14.00;13.25;;;;;19.46;34.72;101304.78;5076458;27;45447;-54
2022/05/03 07:14:49;;;;;;;;;17.25;16.25;;;;;19.45;34.75;101295.22;5078518;27;45476;-58
2022/05/03 07:22:45;;;;;;;;;16.00;14.25;;;;;19.47;34.80;101314.38;5079693;28;47120;-57
2022/05/03 07:22:47;;;;;;;;;19.25;14.25;;;;;19.46;34.47;101306.56;5079792;28;45371;-58
2022/05/03 07:25:16;;;;;;;;;15.00;15.00;;;;;19.49;34.58;101305.56;5079875;28;45565;-57
2022/05/03 07:27:48;;;;;;;;;17.75;15.75;;;;;19.49;34.49;101310.84;5079498;27;46342;-58
2022/05/03 07:30:14;;;;;;;;;16.75;15.00;;;;;19.48;34.84;101312.63;5079554;27;45273;-57
2022/05/03 07:32:40;;;;;;;;;16.50;15.25;;;;;19.45;34.72;101305.72;5079693;27;45342;-57
2022/05/03 07:35:06;;;;;;;;;15.00;13.00;;;;;19.48;34.51;101310.00;5079681;27;45460;-58
2022/05/03 07:37:31;;;;;;;;;20.25;18.25;;;;;19.47;34.45;101309.13;5079407;27;45528;-58
2022/05/03 07:39:57;;;;;;;;;22.50;14.50;;;;;19.45;34.45;101299.59;5079199;28;45246;-55
2022/05/03 07:42:22;;;;;;;;;16.75;14.75;;;;;19.44;34.59;101314.53;5079462;27;45276;-58
2022/05/03 07:44:47;;;;;;;;;17.33;16.33;;;;;19.46;34.54;101306.56;5079046;28;48080;-55
2022/05/03 07:47:12;;;;;;;;;15.67;14.00;;;;;19.46;34.46;101311.84;5078953;28;50925;-55
2022/05/03 07:49:38;;;;;;;;;17.50;15.25;;;;;19.45;34.43;101311.00;5078049;28;45351;-58
2022/05/03 07:52:06;;;;;;;;;19.75;15.75;;;;;19.47;34.51;101313.53;5079728;28;45317;-55
2022/05/03 07:54:31;;;;;;;;;14.50;14.50;;;;;19.47;34.65;101324.06;5079917;27;45583;-57
2022/05/03 07:56:56;;;;;;;;;17.75;15.25;;;;;19.46;34.63;101317.09;5079137;28;47020;-58
2022/05/03 07:59:25;;;;;;;;;18.25;14.00;;;;;19.47;34.31;101322.28;5079369;27;45244;-57
2022/05/03 08:01:51;;;;;;;;;16.75;15.50;;;;;19.49;34.93;101321.34;5079210;28;45211;-53
2022/05/03 08:04:16;;;;;;;;;16.25;13.50;;;;;19.49;34.28;101319.59;5078160;28;45247;-56
2022/05/03 08:06:42;;;;;;;;;16.50;15.00;;;;;19.50;34.78;101329.19;5079062;28;45994;-55
2022/05/03 08:09:07;;;;;;;;;19.00;15.00;;;;;19.50;35.08;101321.31;5079002;28;45358;-56
2022/05/03 08:11:32;;;;;;;;;17.50;15.25;;;;;19.50;34.84;101328.31;5079471;28;45363;-58
2022/05/03 08:13:58;;;;;;;;;22.00;18.33;;;;;19.47;34.75;101313.53;5078742;28;45338;-56
2022/05/03 08:16:23;;;;;;;;;15.75;14.00;;;;;19.52;34.50;101323.84;5078691;27;45421;-57
2022/05/03 08:18:49;;;;;;;;;11.75;11.75;;;;;19.50;35.02;101317.81;5078852;27;45287;-55
2022/05/03 08:21:15;;;;;;;;;15.00;14.00;;;;;19.54;35.35;101319.41;5078784;27;45299;-58
2022/05/03 08:23:40;;;;;;;;;16.00;13.50;;;;;19.55;34.47;101326.38;5079203;27;45489;-56
2022/05/03 08:26:06;;;;;;;;;17.75;14.75;;;;;19.54;34.48;101322.88;5077737;28;45425;-48
2022/05/03 08:28:32;;;;;;;;;17.75;13.25;;;;;19.53;35.04;101321.16;5078994;28;45417;-58
2022/05/03 08:30:58;;;;;;;;;16.25;13.25;;;;;19.55;34.56;101327.19;5077452;28;45335;-57
2022/05/03 08:33:23;;;;;;;;;14.50;13.50;;;;;19.56;34.66;101328.91;5078872;28;45573;-56
2022/05/03 08:35:48;;;;;;;;;14.75;14.25;;;;;19.58;34.85;101320.94;5078485;28;45260;-54
2022/05/03 08:43:43;;;;;;;;;15.75;14.50;;;;;19.63;34.54;101330.34;5078647;28;45313;-56
2022/05/03 08:46:09;;;;;;;;;12.50;12.50;;;;;19.65;34.82;101332.94;5078359;28;47205;-56
2022/05/03 08:48:37;;;;;;;;;17.25;13.50;;;;;19.64;34.54;101320.69;5078701;28;45318;-59
2022/05/03 08:51:03;;;;;;;;;18.00;16.25;;;;;19.69;34.52;101320.50;5078759;27;45505;-57
2022/05/03 08:53:29;;;;;;;;;14.25;12.25;;;;;19.69;34.77;101323.97;5078723;28;45366;-56
2022/05/03 08:55:54;;;;;;;;;16.00;13.50;;;;;19.70;34.49;101325.69;5078085;27;46188;-54
2022/05/03 08:58:22;;;;;;;;;15.00;14.75;;;;;19.72;34.56;101323.00;5078207;28;45343;-56
2022/05/03 09:00:47;;;;;;;;;13.50;12.00;;;;;19.74;34.30;101318.50;5078230;28;45440;-54
2022/05/03 09:03:12;;;;;;;;;12.75;10.50;;;;;19.76;34.59;101325.41;5078428;27;45586;-56
2022/05/03 09:05:39;;;;;;;;;14.75;12.50;;;;;19.77;34.30;101328.91;5076991;28;47266;-56
2022/05/03 09:08:08;;;;;;;;;13.25;13.00;;;;;19.77;34.87;101321.88;5078481;28;45277;-55
2022/05/03 09:10:36;;;;;;;;;13.50;11.50;;;;;19.80;34.19;101327.91;5078333;27;45801;-58
2022/05/03 09:13:22;;;;;;;;;16.00;12.50;;;;;19.80;34.64;101325.25;5078202;27;45549;-56
2022/05/03 09:15:51;;;;;;;;;11.00;10.00;;;;;19.80;34.85;101330.53;5077333;27;46481;-55
2022/05/03 09:18:31;;;;;;;;;15.00;14.50;;;;;19.82;34.29;101333.94;5077908;27;45286;-58
2022/05/03 09:23:54;;;;;;;;;15.75;13.75;;;;;19.82;34.37;101328.69;5077976;28;45440;-56
2022/05/03 09:26:22;;;;;;;;;16.00;15.25;;;;;19.81;34.37;101329.59;5077254;27;45366;-57
2022/05/03 09:28:53;;;;;;;;;15.00;12.25;;;;;19.83;34.43;101330.41;5077799;27;45311;-54
2022/05/03 09:31:28;;;;;;;;;14.75;14.25;;;;;19.85;34.74;101341.72;5077759;27;45274;-45
2022/05/03 09:33:54;;;;;;;;;11.00;10.50;;;;;19.84;34.74;101332.09;5077949;28;45219;-46
2022/05/03 09:36:19;;;;;;;;;12.50;12.25;;;;;19.85;34.26;101323.28;5077442;27;46184;-44
2022/05/03 09:38:50;;;;;;;;;12.25;11.75;;;;;19.86;34.25;101315.34;5077494;28;45258;-49
2022/05/03 09:41:17;;;;;;;;;13.00;13.00;;;;;19.87;34.74;101310.97;5077819;27;45381;-43
2022/05/03 09:44:01;;;;;;;;;12.50;12.50;;;;;19.88;34.52;101307.41;5077313;27;45644;-43
2022/05/03 09:46:27;;;;;;;;;16.50;13.25;;;;;19.89;34.48;101309.13;5077409;28;45612;-52
2022/05/03 09:48:56;;;;;;;;;14.75;12.00;;;;;19.89;34.81;101307.34;5077394;27;45797;-56
2022/05/03 09:51:23;;;;;;;;;14.50;13.25;;;;;19.89;34.78;101303.88;5077569;27;45239;-46
2022/05/03 09:53:59;;;;;;;;;15.00;15.00;;;;;19.91;34.65;101308.13;5077593;27;45472;-51
2022/05/03 09:56:27;;;;;;;;;14.75;13.75;;;;;19.92;34.16;101306.34;5077219;27;46110;-57
2022/05/03 09:58:59;;;;;;;;;15.00;13.00;;;;;19.93;34.72;101308.91;5077256;27;45950;-56
2022/05/03 10:01:25;;;;;;;;;13.00;12.25;;;;;19.94;34.39;101307.13;5077230;27;45283;-53
2022/05/03 10:03:51;;;;;;;;;14.75;11.50;;;;;19.95;34.37;101311.47;5077405;27;45306;-55
2022/05/03 10:06:20;;;;;;;;;17.50;13.00;;;;;19.94;34.44;101296.59;5077036;27;45429;-43
2022/05/03 10:08:48;;;;;;;;;14.75;13.25;;;;;19.96;34.64;101297.38;5076958;27;45923;-54
2022/05/03 10:11:16;;;;;;;;;14.50;12.50;;;;;19.98;34.50;101302.56;5077132;28;45452;-52
2022/05/03 10:13:41;;;;;;;;;13.00;10.50;;;;;19.99;34.41;101293.75;5077479;27;45855;-46
2022/05/03 10:21:39;;;;;;;;;14.00;11.00;;;;;20.02;34.22;101293.63;5077319;28;45309;-51
2022/05/03 10:24:09;;;;;;;;;10.00;9.50;;;;;20.01;34.10;101287.50;5077331;27;45616;-55
2022/05/03 10:27:01;;;;;;;;;11.00;8.75;;;;;20.02;34.39;101291.84;5076778;27;46197;-53
2022/05/03 10:29:26;;;;;;;;;10.00;8.75;;;;;20.03;34.32;101290.91;5076036;27;45873;-58
2022/05/03 10:32:05;;;;;;;;;17.25;12.00;;;;;20.03;34.19;101290.06;5076996;27;45338;-55
2022/05/03 10:34:39;;;;;;;;;11.75;10.00;;;;;20.05;34.53;101294.34;5077096;27;45326;-58
2022/05/03 10:37:05;;;;;;;;;13.25;10.00;;;;;20.04;34.32;101292.63;5076732;28;45569;-57
2022/05/03 10:39:31;;;;;;;;;11.25;10.25;;;;;20.05;34.06;101291.69;5076749;27;45382;-57
2022/05/03 10:41:57;;;;;;;;;9.50;9.00;;;;;20.07;34.32;101289.00;5076741;27;45299;-58
2022/05/03 10:44:54;;;;;;;;;14.50;9.75;;;;;20.08;34.46;101290.69;5076881;28;45400;-54
2022/05/03 10:47:38;;;;;;;;;10.00;9.25;;;;;20.08;34.22;101294.19;5076588;27;45388;-57
2022/05/03 10:50:12;;;;;;;;;14.50;11.75;;;;;20.09;34.06;101289.78;5076070;27;45778;-56
2022/05/03 10:52:58;;;;;;;;;10.00;9.50;;;;;20.08;34.32;101286.31;5076649;28;45291;-56
2022/05/03 10:55:25;;;;;;;;;10.75;10.25;;;;;20.07;34.23;101281.97;5076658;28;45573;-53
2022/05/03 10:58:25;;;;;;;;;12.25;12.25;;;;;20.10;34.48;101282.75;5076422;27;45445;-56
2022/05/03 11:01:09;;;;;;;;;11.75;10.75;;;;;20.10;34.02;101273.06;5076301;27;45926;-55
2022/05/03 11:03:40;;;;;;;;;16.50;13.75;;;;;20.11;34.38;101273.94;5076463;28;45337;-58
2022/05/03 11:06:18;;;;;;;;;12.50;10.00;;;;;20.12;33.92;101273.00;5076811;27;45608;-57
2022/05/03 11:09:08;;;;;;;;;12.00;10.25;;;;;20.12;34.31;101280.91;5076441;28;45360;-57
2022/05/03 11:11:40;;;;;;;;;9.50;8.25;;;;;20.13;34.36;101279.97;5076066;28;45271;-58
2022/05/03 11:14:21;;;;;;;;;10.00;9.00;;;;;20.13;34.13;101269.44;5076308;28;45332;-50
2022/05/03 11:17:05;;;;;;;;;12.50;10.25;;;;;20.13;34.31;101274.69;5076698;27;45426;-51
2022/05/03 11:19:56;;;;;;;;;12.25;11.25;;;;;20.14;34.27;101276.41;5076238;28;46941;-52
2022/05/03 11:22:28;;;;;;;;;9.25;7.50;;;;;20.14;34.01;101261.47;5076165;27;45471;-52
2022/05/03 11:24:56;;;;;;;;;11.25;10.00;;;;;20.14;33.77;101255.34;5075105;28;45402;-46
2022/05/03 11:27:23;;;;;;;;;11.00;9.25;;;;;20.15;34.00;101264.97;5076443;27;45327;-57
2022/05/03 11:29:55;;;;;;;;;11.00;10.00;;;;;20.15;34.22;101255.31;5074672;28;48316;-55
2022/05/03 11:32:37;;;;;;;;;9.25;9.00;;;;;20.16;34.06;101259.63;5076029;27;45764;-57
2022/05/03 11:35:08;;;;;;;;;14.50;11.00;;;;;20.15;33.88;101247.41;5075982;27;45408;-57
2022/05/03 11:37:34;;;;;;;;;13.25;11.25;;;;;20.17;34.02;101249.94;5076199;27;45472;-57
2022/05/03 11:40:02;;;;;;;;;11.00;9.75;;;;;20.17;33.59;101260.47;5075729;27;45259;-57
2022/05/03 11:42:34;;;;;;;;;10.75;10.75;;;;;20.17;33.66;101245.56;5075819;27;45420;-59
2022/05/03 11:45:00;;;;;;;;;11.75;10.50;;;;;20.19;34.28;101253.38;5074548;28;45343;-57
2022/05/03 11:47:25;;;;;;;;;11.75;9.00;;;;;20.19;33.53;101254.22;5075997;27;45303;-57
2022/05/03 11:49:52;;;;;;;;;14.25;13.00;;;;;20.19;33.61;101246.31;5075839;28;45411;-58